Date,TemperatureHighF,TemperatureAvgF,TemperatureLowF,DewpointHighF,DewpointAvgF,DewpointLowF,HumidityHigh,HumidityAvg,HumidityLow,PressureMaxIn,PressureMinIn,WindSpeedMaxMPH,WindSpeedAvgMPH,GustSpeedMaxMPH,PrecipitationSumIn
2013-1-3,40.1,39.1,38.1,39.5,38.7,37.8,99,98,97,30.21,30.20,1,0,2,0.00
2013-1-4,62.6,45.7,34.5,45.5,39.9,34.2,99,83,50,30.21,30.09,5,1,8,0.00
2013-1-13,53.7,47.1,36.8,29.0,24.0,13.4,61,41,30,30.14,30.07,7,2,10,0.00
2013-1-14,55.4,43.3,34.3,26.8,22.2,14.3,64,44,30,30.32,30.18,8,2,13,0.02
2013-1-15,57.3,41.1,30.5,35.5,28.3,23.1,78,62,36,30.40,30.30,6,1,10,0.00
2013-1-16,63.3,44.5,31.8,40.8,32.7,28.5,93,67,31,30.37,30.19,7,1,11,0.00
2013-1-20,68.9,49.5,41.9,39.3,35.1,32.2,73,59,34,30.21,30.05,2,0,4,0.20
2013-1-21,71.7,48.5,34.8,44.6,35.2,28.4,83,63,33,30.10,30.00,3,1,5,0.00
2013-1-22,64.2,48.9,36.6,45.3,40.1,33.0,92,74,46,30.06,29.93,4,1,5,0.00
2013-1-23,52.7,49.1,46.0,49.9,46.2,42.6,99,90,81,30.02,29.89,4,1,6,0.07
2013-1-24,55.2,50.8,47.4,52.8,50.0,47.2,99,97,88,30.12,30.00,4,1,7,0.12
2013-1-25,68.7,56.1,50.1,58.6,53.4,49.9,99,92,66,30.13,29.97,6,1,8,0.01
2013-1-26,58.8,50.4,42.9,50.8,45.5,39.0,99,85,53,30.00,29.90,8,3,15,0.01
2013-1-27,60.8,46.9,37.9,40.9,36.6,27.1,96,72,29,30.08,29.99,6,2,10,0.00
2013-1-28,60.6,47.4,38.3,42.9,38.4,35.2,90,73,43,30.21,30.09,4,2,11,0.00
2013-1-29,66.7,47.9,37.7,44.7,40.9,36.9,99,80,43,30.27,30.16,4,1,7,0.00
2013-1-30,75.9,56.0,46.2,44.3,40.9,38.3,85,60,28,30.26,30.16,3,1,4,0.00
2013-1-31,73.2,52.2,39.0,49.2,42.9,35.7,93,73,41,30.22,30.09,4,1,6,0.00
2013-2-1,77.0,53.4,40.6,50.3,45.5,39.7,99,78,39,30.14,30.02,3,1,4,0.00
2013-2-2,66.7,51.9,44.2,53.2,47.0,42.5,97,85,60,30.21,30.12,3,1,6,0.00
2013-2-3,69.8,51.8,44.6,48.2,45.3,42.7,99,81,44,30.18,30.04,5,2,8,0.00
2013-2-4,72.6,51.0,38.8,52.2,45.8,38.5,99,85,44,30.11,29.96,4,1,5,0.00
2013-2-5,56.6,48.9,44.6,48.8,45.5,42.5,99,89,72,30.08,29.99,8,3,15,0.00
2013-2-6,67.4,48.4,37.0,46.2,42.4,36.2,99,82,46,30.12,30.01,6,2,9,0.01
2013-2-7,140.0,50.2,38.3,99.9,45.6,37.7,99,97,87,30.11,29.79,4,1,5,0.04
2013-2-8,140.0,140.0,140.0,99.9,99.9,99.9,99,99,99,29.80,29.73,2,0,3,0.04
2013-2-9,140.0,140.0,140.0,99.9,99.9,99.9,99,71,39,29.90,29.78,7,1,11,0.00
2013-2-10,140.0,140.0,140.0,99.9,99.9,99.9,95,77,50,29.92,29.82,7,1,10,0.00
2013-2-11,72.5,49.3,36.6,37.5,32.5,22.2,85,58,17,30.16,30.01,4,1,5,0.00
2013-2-12,72.1,47.7,35.9,41.2,35.3,28.3,76,64,32,30.27,30.17,2,1,5,0.00
2013-2-13,73.5,51.9,37.7,47.4,39.0,33.0,88,66,24,30.27,30.12,4,1,6,0.00
2013-2-14,72.5,55.5,41.9,45.8,41.2,38.3,87,62,33,30.16,30.07,8,2,15,0.00
2013-2-15,83.4,57.4,42.8,52.9,44.2,37.2,82,64,34,30.19,30.11,6,1,8,0.00
2013-2-16,76.6,56.5,43.3,51.8,45.0,38.5,84,68,37,30.18,29.96,4,1,5,0.00
2013-2-17,75.0,53.8,43.1,49.1,44.2,38.7,99,74,27,29.99,29.86,4,1,6,0.00
2013-2-18,51.0,46.8,42.0,44.2,41.7,39.2,98,83,70,29.96,29.88,8,4,15,0.00
2013-2-19,50.1,43.2,37.5,43.5,39.3,34.8,99,86,66,29.89,29.66,9,3,19,0.52
2013-2-20,64.9,46.4,35.7,42.5,36.7,30.2,94,73,32,29.99,29.76,8,3,13,0.00
2013-2-21,66.2,48.4,35.7,40.1,35.7,24.3,99,68,24,30.10,29.98,7,2,10,0.01
2013-2-22,69.0,49.8,36.5,46.5,39.1,32.9,96,71,29,30.17,30.08,5,2,11,0.00
2013-2-23,64.7,51.7,44.9,47.0,38.8,27.9,99,67,27,30.17,30.06,8,3,12,0.00
2013-2-24,69.8,51.9,40.2,33.3,26.1,18.4,64,40,14,30.17,30.06,8,2,13,0.00
2013-2-25,70.8,51.4,36.8,45.3,36.8,20.8,85,61,16,30.20,30.07,8,1,11,0.00
2013-2-26,78.2,54.0,37.4,39.3,31.5,18.6,94,53,14,30.15,30.02,7,1,13,0.00
2013-2-27,78.8,54.0,39.0,44.7,36.4,27.5,85,56,18,30.30,30.15,4,1,6,0.00
2013-2-28,76.8,56.8,43.3,54.4,48.3,41.3,94,75,46,30.37,30.27,5,1,12,0.00
2013-3-1,83.1,60.4,45.5,54.2,49.3,44.6,99,71,33,30.37,30.15,4,1,4,0.00
2013-3-2,76.1,60.4,50.1,53.8,49.4,44.9,86,69,44,30.19,29.98,4,1,6,0.00
2013-3-3,69.0,56.0,47.6,50.9,48.4,45.6,97,78,44,30.04,29.94,8,3,14,0.00
2013-3-4,70.1,51.0,44.0,50.6,45.8,41.5,99,84,50,30.08,29.96,5,2,9,0.00
2013-3-5,64.7,51.3,41.3,45.0,42.2,38.8,98,74,44,30.00,29.78,13,4,18,0.22
2013-3-6,57.0,50.1,42.2,47.3,42.7,38.7,99,77,52,29.99,29.76,14,4,23,2.28
2013-3-7,61.5,49.7,38.6,46.3,40.9,36.7,97,74,44,29.93,29.77,4,1,7,0.04
2013-3-8,61.8,50.5,41.9,47.4,43.9,39.8,97,80,47,29.98,29.75,10,3,17,0.00
2013-3-9,74.6,54.6,40.4,45.5,41.4,33.8,99,67,25,30.24,29.99,5,2,8,0.00
2013-3-10,82.4,57.6,40.6,42.2,36.8,25.5,90,54,16,30.27,30.14,7,2,10,0.00
2013-3-11,80.9,59.3,42.4,46.5,41.3,36.7,81,55,22,30.19,30.01,4,1,8,0.00
2013-3-12,87.9,63.7,45.5,54.7,47.1,41.4,86,59,31,30.07,29.95,4,1,5,0.00
2013-3-17,78.9,64.0,49.4,47.4,45.3,41.5,84,53,29,30.06,29.94,6,2,11,0.00
2013-3-18,73.0,56.2,43.7,49.1,44.9,40.3,91,69,38,30.06,29.94,6,2,12,0.00
2013-3-19,75.9,56.5,46.9,49.4,45.6,37.9,93,71,34,30.08,29.98,7,2,11,0.05
2013-3-20,66.2,56.0,49.8,57.2,52.4,48.0,99,89,58,30.07,30.00,10,2,17,0.04
2013-3-21,69.2,52.7,44.2,51.5,45.9,40.5,99,81,38,30.06,29.96,6,2,11,0.00
2013-3-27,69.4,61.4,50.3,53.9,51.8,42.0,89,72,37,29.96,29.87,7,3,12,0.00
2013-3-28,79.5,62.9,54.5,56.5,54.0,52.5,97,75,44,30.01,29.93,4,1,6,0.00
2013-3-29,86.1,65.5,51.4,55.4,52.5,49.4,96,67,35,30.03,29.91,4,1,8,0.00
2013-3-30,75.0,62.2,55.9,56.9,53.6,51.4,96,75,46,29.99,29.90,8,2,15,0.01
2013-3-31,71.0,59.6,51.8,55.4,53.1,48.9,97,81,50,30.00,29.93,7,2,11,0.02
2013-4-1,71.7,58.8,52.5,57.1,52.5,48.7,98,82,51,30.09,29.99,7,2,10,0.00
2013-4-2,75.0,59.3,47.1,56.2,51.5,46.7,99,78,50,30.11,29.99,4,1,8,0.00
2013-4-3,85.8,62.0,46.2,56.2,50.8,45.4,99,73,34,30.08,29.88,4,1,6,0.00
2013-4-4,68.5,58.5,51.4,57.7,54.0,49.5,99,86,65,30.05,29.93,8,3,10,0.06
2013-4-5,67.4,58.3,52.5,54.4,52.1,50.2,97,81,58,30.12,30.05,7,3,11,0.00
2013-4-6,67.8,57.8,52.7,56.1,53.1,50.9,98,85,64,30.12,30.06,6,3,10,0.00
2013-4-7,65.4,56.0,50.5,54.7,51.3,46.5,99,85,60,30.11,29.79,10,4,17,0.02
2013-4-8,75.7,58.2,44.6,51.3,36.1,20.1,99,52,15,29.94,29.72,11,4,19,1.13
2013-4-9,84.2,64.3,51.0,41.9,32.7,24.3,67,35,12,30.02,29.94,5,2,12,0.00
2013-4-10,87.6,69.8,54.8,56.7,46.4,32.7,84,46,26,30.09,29.95,6,2,11,0.00
2013-4-11,76.8,59.1,48.9,52.5,50.0,46.2,99,75,40,30.01,29.77,5,2,8,0.00
2013-4-12,81.6,61.3,45.6,52.7,47.2,43.2,95,66,28,29.85,29.73,8,2,11,0.00
2013-4-13,69.4,56.1,47.6,51.8,47.5,45.1,93,75,52,29.84,29.74,8,3,11,0.00
2013-4-14,69.4,55.8,43.8,47.7,44.4,40.5,95,69,35,29.86,29.76,9,3,16,0.00
2013-4-15,60.9,51.8,45.1,49.7,41.9,32.2,99,72,36,29.88,29.77,11,4,21,0.06
2013-4-16,74.6,55.4,39.7,40.1,30.7,18.3,85,47,13,30.06,29.88,7,2,11,0.00
2013-4-17,78.6,60.8,51.0,37.2,26.3,18.1,54,30,13,30.17,30.08,7,2,15,0.01
2013-4-18,84.0,62.6,44.6,44.2,36.5,30.4,67,43,17,30.20,30.08,5,1,7,0.00
2013-4-19,85.8,67.4,49.6,52.9,45.4,39.7,72,48,26,30.17,29.99,6,2,11,0.00
2013-4-20,85.8,67.9,51.4,52.3,46.3,39.1,86,52,21,30.05,29.89,6,2,8,0.00
2013-4-21,91.2,70.5,51.9,49.0,42.9,33.0,74,44,13,29.97,29.84,8,2,9,0.00
2013-4-22,96.4,72.4,58.2,51.2,44.0,28.9,64,41,11,29.91,29.75,4,1,6,0.00
2013-4-23,90.5,72.6,55.2,48.4,33.0,20.1,72,28,12,29.86,29.76,6,2,10,0.00
2013-4-24,78.2,61.5,48.5,53.2,48.0,42.3,90,65,32,29.89,29.74,9,3,13,0.00
2013-4-25,71.7,59.0,51.2,53.7,50.9,48.0,94,76,52,30.08,29.89,8,3,12,0.00
2013-4-26,81.5,61.6,50.9,55.8,51.0,47.5,93,72,36,30.15,30.05,5,2,11,0.00
2013-4-27,89.2,65.0,47.6,58.7,51.1,46.7,98,66,34,30.16,29.99,4,2,6,0.00
2013-4-28,94.4,70.8,49.8,60.6,53.0,46.8,93,58,29,30.01,29.80,5,1,10,0.00
2013-4-29,94.2,76.3,60.2,55.7,52.5,47.4,78,48,23,29.83,29.68,4,2,8,0.00
2013-4-30,89.0,71.2,54.8,55.4,41.1,20.9,87,44,12,29.78,29.70,7,2,11,0.00
2013-5-1,89.0,75.9,65.8,38.7,25.5,18.6,33,16,12,30.02,29.78,7,3,11,0.00
2013-5-2,94.8,77.0,59.9,41.7,33.6,21.0,44,23,11,30.09,29.99,8,2,13,0.00
2013-5-3,95.7,76.5,58.2,43.8,36.8,28.0,47,27,12,30.03,29.73,7,1,11,0.00
2013-5-4,94.2,74.9,58.2,49.9,41.4,34.3,72,34,14,29.74,29.46,7,2,11,0.00
2013-5-5,72.5,61.5,53.4,52.4,50.1,45.1,82,67,44,29.75,29.55,8,2,11,0.00
2013-5-6,75.2,62.0,55.7,60.6,53.4,49.7,92,74,46,29.91,29.75,7,2,12,0.31
2013-5-7,76.2,63.1,53.7,57.0,52.6,45.8,93,72,42,29.99,29.89,9,2,16,0.00
2013-5-8,73.2,59.6,52.7,55.2,52.1,49.7,96,79,46,30.10,29.98,8,3,12,0.00
2013-5-9,76.2,60.0,51.9,56.3,52.1,49.1,96,78,49,30.13,30.01,9,3,13,0.00
2013-5-10,83.6,62.5,51.2,60.6,54.0,49.9,99,78,44,30.14,30.01,7,2,11,0.00
2013-5-11,96.4,72.2,52.7,63.6,54.5,46.7,95,61,22,30.10,29.93,7,2,11,0.00
2013-5-12,91.2,71.6,56.1,61.1,54.1,48.9,81,57,31,30.07,29.95,7,2,13,0.00
2013-5-13,88.8,68.2,53.4,59.6,54.0,48.3,84,64,34,30.02,29.88,7,2,14,0.00
2013-5-14,76.6,62.4,52.5,56.8,51.7,47.6,94,70,44,29.97,29.87,10,4,21,0.00
2013-5-15,69.8,57.2,50.0,52.1,49.4,46.9,93,77,45,29.99,29.96,11,5,18,0.04
2013-5-16,72.6,59.0,53.4,58.4,53.6,50.0,99,84,54,29.98,29.90,9,4,18,0.02
2013-5-17,71.7,59.1,51.2,52.0,49.0,45.6,95,72,42,30.04,29.92,10,4,16,0.01
2013-5-18,79.8,62.8,50.1,54.6,51.5,48.0,95,70,38,30.07,30.00,9,3,14,0.00
2013-5-19,88.5,74.9,51.9,55.1,47.6,42.2,92,42,22,30.06,29.89,8,2,14,0.00
2013-5-20,93.9,73.3,56.1,50.9,44.2,31.3,75,42,12,29.94,29.84,7,2,14,0.00
2013-5-21,72.1,59.8,50.7,52.8,48.6,44.1,88,69,41,29.92,29.85,11,4,21,0.00
2013-5-22,70.8,54.9,45.6,45.8,39.6,23.1,86,61,17,29.95,29.84,10,3,18,0.00
2013-5-23,74.1,58.5,47.8,48.4,45.8,43.8,90,66,38,29.95,29.86,8,2,13,0.00
2013-5-24,77.5,60.6,46.7,50.0,45.1,37.4,94,63,24,29.94,29.87,10,2,21,0.00
2013-5-28,75.7,66.8,56.3,60.6,56.1,52.6,91,70,52,29.92,29.84,8,4,15,0.01
2013-5-29,75.9,62.7,54.1,57.8,53.8,50.3,94,75,48,29.90,29.83,8,4,15,0.00
2013-5-30,82.2,64.4,49.8,53.9,49.7,44.2,97,64,33,29.93,29.85,8,2,14,0.00
2013-5-31,94.6,72.3,51.6,53.5,47.5,39.0,85,48,15,29.96,29.81,9,2,15,0.00
2013-6-1,98.7,78.3,58.2,57.5,51.7,48.0,73,44,20,29.87,29.68,8,2,11,0.00
2013-6-2,92.4,73.4,58.1,60.7,54.0,50.3,76,54,29,29.72,29.58,8,2,12,0.00
2013-6-3,86.7,67.9,55.2,58.7,53.9,50.7,86,64,36,29.79,29.65,9,3,15,0.00
2013-6-4,79.3,63.3,53.2,58.7,54.4,51.3,96,75,46,29.91,29.78,10,3,15,0.00
2013-6-5,83.4,64.8,54.1,58.5,53.9,51.3,93,71,41,29.93,29.82,5,2,14,0.00
2013-6-6,89.0,67.8,53.2,61.4,55.8,51.1,98,71,37,29.90,29.74,6,2,13,0.00
2013-6-8,109.0,88.5,68.0,63.4,59.5,56.6,69,42,21,29.72,29.56,7,3,14,0.00
2013-6-9,80.2,66.6,59.0,60.3,57.2,54.4,89,73,49,29.82,29.72,12,4,20,0.00
2013-6-10,76.6,63.7,55.5,57.6,54.8,53.2,95,75,50,29.89,29.75,8,4,16,0.02
2013-6-11,86.9,67.0,54.6,61.1,55.8,52.5,93,70,41,29.90,29.82,6,2,12,0.00
2013-6-12,84.0,68.8,54.8,55.7,50.9,46.6,85,57,29,29.89,29.84,9,3,18,0.00
2013-6-15,55.2,54.1,53.4,50.7,50.5,50.1,90,87,84,29.95,29.92,6,2,10,0.00
2013-6-16,89.2,66.2,51.2,56.7,53.0,49.5,94,67,29,30.03,29.94,8,3,16,0.00
2013-6-17,77.7,63.9,52.8,59.0,55.0,51.0,98,76,45,30.03,29.97,9,4,19,0.00
2013-6-18,73.2,61.9,54.1,55.5,53.1,50.0,97,76,45,29.99,29.92,11,5,21,0.09
2013-6-19,80.4,64.0,51.0,54.5,51.1,48.8,94,67,36,29.98,29.92,8,3,17,0.00
2013-6-20,83.8,66.0,52.1,55.8,51.5,45.3,92,64,29,29.96,29.86,9,3,15,0.00
2013-6-21,89.4,68.6,51.9,56.6,50.8,40.4,93,60,21,29.92,29.82,9,2,14,0.00
2013-6-22,93.9,72.1,54.6,56.4,51.6,44.7,91,55,22,29.87,29.75,8,2,13,0.00
2013-6-23,69.0,61.5,55.4,63.2,58.8,54.5,99,91,78,29.83,29.75,8,4,15,0.00
2013-6-24,67.8,63.0,59.0,63.0,60.9,58.6,99,93,84,29.85,29.73,6,2,8,0.05
2013-6-25,82.7,69.2,61.5,68.2,63.4,59.6,97,83,57,29.92,29.83,8,2,15,0.01
2013-6-26,90.3,74.6,63.5,68.1,63.5,59.7,97,72,43,29.99,29.90,8,2,12,0.00
2013-6-27,98.6,78.0,60.8,66.9,61.9,58.0,94,63,33,30.01,29.92,7,2,10,0.00
2013-6-28,105.2,85.6,65.6,68.0,58.8,43.9,76,46,14,29.97,29.80,8,2,17,0.00
2013-6-29,107.4,87.1,68.5,63.2,58.1,43.9,63,41,12,29.86,29.70,8,2,15,0.00
2013-6-30,102.9,84.4,68.5,64.9,59.1,44.5,67,45,15,29.77,29.66,8,2,15,0.00
2013-7-1,103.6,83.7,65.4,66.4,59.4,55.5,76,48,24,29.77,29.71,8,1,12,0.00
2013-7-2,107.0,84.6,69.4,67.0,61.1,56.7,68,48,24,29.84,29.74,8,2,14,0.00
2013-7-3,104.9,85.5,65.1,68.4,60.2,55.1,81,47,25,29.84,29.66,7,2,13,0.00
2013-7-4,105.6,85.4,72.3,66.5,59.9,49.1,65,45,23,29.70,29.58,8,2,15,0.00
2013-7-5,78.4,66.0,55.7,58.7,54.6,47.9,93,69,43,29.74,29.65,11,5,20,0.04
2013-7-6,85.6,66.6,55.9,59.8,55.8,53.5,96,72,40,29.73,29.63,7,3,13,0.00
2013-7-7,94.8,72.0,55.2,60.6,55.8,52.8,95,62,28,29.80,29.67,5,2,10,0.00
2013-7-8,96.0,71.6,55.0,59.8,54.7,47.4,95,62,23,29.90,29.80,6,2,11,0.00
2013-7-9,104.5,81.6,59.1,61.3,51.3,34.9,86,44,11,29.95,29.82,7,2,11,0.00
2013-7-10,95.7,74.8,58.1,61.3,53.1,46.7,84,51,22,29.91,29.80,8,2,12,0.00
2013-7-11,86.1,66.3,54.8,58.7,54.7,52.2,95,70,36,29.89,29.79,8,3,15,0.00
2013-7-12,89.4,68.8,54.8,58.5,53.5,46.8,95,63,28,29.87,29.78,8,2,13,0.00
2013-7-13,95.9,75.5,56.1,59.8,51.9,45.6,84,49,21,29.89,29.80,6,2,12,0.00
2013-7-14,93.2,72.8,57.5,58.5,52.8,47.1,82,53,24,29.92,29.79,8,2,14,0.00
2013-7-15,82.2,64.2,53.4,57.5,54.2,51.3,96,73,41,29.87,29.75,8,3,15,0.00
2013-7-16,77.9,64.3,57.0,57.6,55.6,54.4,92,76,47,29.98,29.81,8,4,13,0.00
2013-7-17,88.5,69.3,57.9,61.8,57.1,53.8,94,69,35,30.04,29.92,7,3,11,0.00
2013-7-18,97.7,72.7,54.6,60.4,53.6,43.1,97,60,16,30.01,29.84,6,2,11,0.00
2013-7-19,99.3,74.9,55.7,62.5,56.2,52.7,95,58,24,29.89,29.70,8,2,14,0.00
2013-7-20,99.1,72.2,55.4,63.4,57.1,53.5,97,65,29,29.79,29.62,7,2,11,0.00
2013-7-21,95.3,74.3,57.5,62.3,57.3,53.7,89,60,32,29.81,29.66,6,2,13,0.00
2013-7-22,91.0,72.4,58.8,62.4,58.1,55.3,91,64,33,29.89,29.80,7,2,12,0.00
2013-7-23,90.3,75.0,65.4,62.0,55.7,45.8,77,54,27,29.92,29.86,8,2,12,0.00
2013-7-24,100.5,78.7,62.4,59.7,54.1,37.4,79,49,12,29.91,29.79,7,2,12,0.00
2013-7-25,95.1,76.0,62.9,60.3,54.4,47.9,74,50,24,29.95,29.84,8,2,12,0.00
2013-7-26,93.7,73.2,57.3,62.2,57.0,52.5,91,61,33,30.01,29.90,9,2,15,0.00
2013-7-27,93.5,71.4,57.0,63.0,57.5,54.5,96,67,32,29.97,29.76,7,2,13,0.00
2013-7-28,87.0,68.1,57.3,61.8,57.3,53.5,97,72,39,29.82,29.71,8,3,15,0.00
2013-7-29,84.0,65.3,55.2,59.4,55.6,52.8,94,74,43,29.95,29.78,8,3,15,0.00
2013-7-30,89.4,68.5,55.5,60.9,55.9,53.1,96,69,32,30.03,29.92,7,2,13,0.00
2013-7-31,85.6,66.4,54.8,59.5,55.1,51.4,97,72,31,30.02,29.92,9,3,15,0.00
2013-8-1,80.9,65.1,55.4,56.8,54.1,50.2,95,72,35,30.02,29.89,9,4,18,0.00
2013-8-2,90.3,69.2,53.4,58.8,54.4,51.3,97,65,28,29.92,29.80,9,2,12,0.00
2013-8-3,58.4,58.1,57.7,53.2,52.9,52.6,84,83,82,29.89,29.88,1,0,3,0.00
2013-8-7,80.0,65.1,56.4,58.4,56.8,55.7,99,77,46,30.03,29.96,8,3,15,0.00
2013-8-8,82.4,65.2,56.6,61.9,57.7,54.1,98,80,45,29.98,29.85,8,3,15,0.00
2013-8-9,81.5,64.0,55.0,60.0,56.7,53.9,99,80,46,29.94,29.84,8,3,12,0.00
2013-8-10,58.2,57.1,56.4,57.1,56.2,55.8,99,97,93,29.95,29.93,5,2,10,0.00
2013-8-14,62.9,62.8,62.7,60.9,60.6,60.4,93,92,92,29.89,29.88,4,2,7,0.00
2013-8-15,91.7,72.1,61.5,67.1,63.1,60.2,98,78,41,29.91,29.82,7,3,13,0.00
2013-8-16,94.4,73.1,61.7,68.4,61.4,54.0,98,72,32,29.92,29.84,8,2,12,0.00
2013-8-17,87.6,65.4,60.4,61.7,57.8,54.9,89,78,39,29.92,29.79,8,1,15,0.00
2013-8-18,102.7,78.3,59.0,65.5,60.4,54.5,95,61,27,29.82,29.67,4,1,9,0.00
2013-8-19,105.9,83.4,68.5,66.8,59.5,50.3,71,48,24,29.83,29.70,8,2,14,0.00
2013-8-20,96.0,75.3,61.1,63.8,58.4,52.8,89,59,30,29.82,29.70,7,2,12,0.00
2013-8-21,88.5,68.9,58.4,60.2,57.1,53.9,93,70,35,29.88,29.75,7,2,12,0.00
2013-8-22,84.2,66.9,57.3,60.3,56.7,54.3,95,73,42,29.90,29.80,8,3,13,0.00
2013-8-23,86.0,66.7,57.7,61.4,57.4,54.8,95,76,41,29.88,29.73,8,3,13,0.00
2013-8-24,85.8,68.5,57.2,61.9,58.8,56.0,98,75,44,29.85,29.76,9,4,15,0.00
2013-8-25,89.7,70.7,62.0,67.3,62.4,58.1,98,78,43,29.88,29.79,10,3,15,0.00
2013-8-26,88.1,70.0,60.8,62.8,59.2,56.0,94,72,41,29.95,29.81,5,2,12,0.00
2013-8-27,91.5,70.4,56.4,61.3,57.6,54.2,95,69,31,29.86,29.72,7,2,12,0.00
2013-8-28,91.7,71.8,59.9,65.0,61.8,58.4,98,75,39,29.89,29.78,8,2,15,0.00
2013-8-29,91.4,72.5,60.6,67.0,62.5,57.7,99,75,33,29.98,29.89,8,2,11,0.00
2013-8-30,99.8,77.2,60.6,67.3,61.9,56.4,98,66,29,29.98,29.82,6,1,15,0.00
2013-8-31,90.8,73.2,61.7,61.0,58.1,54.4,87,63,30,29.91,29.80,8,2,11,0.00
2013-9-1,89.6,71.4,59.7,62.8,59.5,56.4,95,70,35,29.89,29.78,8,3,12,0.00
2013-9-2,87.6,70.8,63.3,67.3,63.3,61.0,96,80,44,29.90,29.80,8,3,13,0.01
2013-9-3,83.8,69.4,59.0,62.6,59.0,54.0,98,74,38,29.93,29.85,8,3,15,0.01
2013-9-4,62.2,61.0,59.7,60.0,59.1,58.3,96,93,91,29.96,29.92,6,3,12,0.00
2013-9-12,87.2,71.2,60.4,63.2,60.1,58.0,96,72,44,29.88,29.78,7,3,11,0.00
2013-9-13,60.8,58.9,57.9,59.4,58.3,57.5,99,98,95,29.86,29.83,7,3,12,0.00
2013-10-12,79.5,64.9,52.2,56.8,52.2,47.4,92,60,31,31.35,29.84,9,3,13,0.00
2013-10-13,85.3,60.4,47.5,55.5,49.2,45.4,99,66,23,31.36,29.85,7,1,10,0.00
2013-10-14,83.1,62.9,47.1,51.8,45.7,41.7,83,50,18,31.38,29.94,5,1,9,0.00
2013-10-15,83.3,64.0,48.6,47.8,42.9,33.3,70,42,10,31.37,29.90,8,1,12,0.00
2013-10-16,89.1,65.8,49.1,52.1,44.5,40.2,65,41,15,32.11,29.94,6,1,8,0.00
2013-10-17,87.1,66.5,50.0,52.2,43.2,39.2,67,37,14,32.80,28.59,6,1,10,0.00
2013-10-18,89.4,66.2,49.1,52.5,45.9,40.1,65,43,17,31.36,29.91,5,1,8,0.00
2013-10-19,90.9,61.7,49.6,55.6,46.1,-99.9,75,53,14,31.42,29.93,5,0,8,0.00
2013-10-20,89.8,66.4,49.3,56.6,50.1,43.9,81,52,21,32.00,29.84,6,1,8,21.96
2013-10-21,88.3,64.6,49.3,59.6,52.1,44.4,94,62,22,31.39,29.83,4,1,7,0.78
2013-10-22,89.6,62.3,48.9,60.8,49.5,44.8,97,61,15,31.38,29.84,5,0,7,0.00
2013-10-23,85.6,61.5,48.6,61.7,53.5,47.9,99,74,35,31.38,28.40,6,1,8,0.00
2013-10-24,68.2,55.2,49.6,56.3,51.6,48.6,99,85,56,31.52,29.93,10,2,16,0.00
2013-10-25,88.0,60.0,47.5,59.1,52.6,47.3,99,76,34,32.36,30.04,6,1,8,0.00
2013-10-26,86.0,63.4,47.5,59.6,51.9,46.3,95,65,28,31.50,29.98,4,1,6,0.00
2013-10-27,80.4,58.2,47.5,59.3,51.6,-99.9,99,78,34,32.32,21.47,179,2,179,21.96
2013-10-28,72.3,54.3,47.1,52.3,49.5,46.5,99,81,49,31.25,29.64,10,3,15,0.00
2013-10-29,82.4,56.7,49.3,54.3,50.5,47.2,93,77,44,31.44,29.82,7,1,12,0.00
2013-10-30,73.8,54.5,43.0,55.5,48.7,42.6,99,78,41,31.60,29.12,10,2,15,0.00
2013-10-31,80.8,54.8,44.6,54.3,49.5,43.0,94,81,27,33.50,29.84,6,2,11,0.00
2013-11-1,83.5,60.8,44.8,55.1,47.5,41.3,93,59,25,32.26,29.84,6,1,11,0.78
2013-11-2,79.7,57.9,46.2,58.3,48.5,0.0,94,67,36,30.08,29.89,7,1,10,0.00
2013-11-3,69.6,54.2,43.7,49.2,41.6,32.9,99,61,18,30.01,29.90,5,1,7,0.00
2013-11-4,75.7,57.4,40.1,50.7,39.6,30.7,89,49,13,30.82,29.88,7,1,14,0.00
2013-11-5,79.0,62.1,50.9,46.3,40.1,32.7,58,36,21,30.94,30.03,6,1,12,0.00
2013-11-6,74.7,58.8,45.5,47.4,42.9,38.2,72,49,23,30.23,30.14,5,1,8,0.00
2013-11-7,84.0,61.3,48.7,48.0,44.9,40.3,72,50,15,30.83,30.04,5,1,7,0.00
2013-11-8,81.5,60.2,46.4,57.8,50.3,44.1,90,66,31,30.06,29.93,6,1,10,0.00
2013-11-9,84.7,59.9,45.9,57.3,50.4,45.1,99,69,25,30.01,29.94,4,0,7,0.00
2013-11-10,80.2,57.1,45.1,56.3,50.1,43.7,97,75,32,30.77,30.00,6,1,9,0.00
2013-11-11,71.6,56.7,46.4,56.6,51.1,46.0,99,79,48,30.14,30.05,3,0,4,0.00
2013-11-12,77.7,60.9,51.3,54.7,50.9,46.5,84,65,29,30.23,30.11,5,1,8,0.00
2013-11-13,85.1,60.5,46.2,60.0,50.4,44.1,92,67,29,30.23,30.07,4,1,8,0.00
2013-11-14,75.0,56.0,47.8,59.8,52.2,47.6,99,86,50,30.09,29.84,8,1,9,0.00
2013-11-15,70.9,53.7,43.2,51.9,46.3,42.8,99,74,28,29.85,29.70,7,1,11,0.00
2013-11-16,67.3,52.9,44.6,53.9,48.4,42.3,99,83,45,29.90,29.74,7,2,11,0.00
2013-11-17,70.9,55.3,47.3,53.3,49.9,45.9,99,80,43,30.05,29.90,4,1,6,0.00
2013-11-18,60.8,50.9,43.3,51.9,47.6,43.0,99,86,59,30.11,30.04,7,2,11,0.00
2013-11-19,63.3,51.8,45.1,56.5,49.4,0.0,99,89,69,31.63,29.92,6,0,8,0.34
2013-11-20,60.3,55.4,51.4,59.5,55.0,51.2,99,98,94,29.93,29.82,4,1,8,0.44
2013-11-21,65.7,54.1,48.0,51.2,39.9,26.4,99,56,21,29.94,29.86,14,3,29,1.11
2013-11-22,71.4,58.3,50.9,38.4,28.5,22.4,42,22,13,29.99,29.86,12,5,21,1.45
2013-11-23,73.2,52.8,40.6,45.7,40.5,35.1,80,57,22,30.07,29.93,5,0,8,0.02
2013-11-24,72.1,51.0,39.4,50.4,43.0,37.6,94,71,31,30.22,30.06,3,0,5,0.08
2013-11-25,69.4,50.8,38.3,52.6,44.9,37.9,99,78,44,30.29,30.21,4,0,6,0.08
2013-11-26,65.1,50.9,41.9,51.8,45.3,41.1,98,78,47,30.23,30.01,3,0,4,0.00
2013-11-27,66.0,51.7,41.9,53.9,47.7,41.7,99,83,57,30.01,29.82,4,0,7,0.00
2013-11-28,78.1,54.7,43.9,53.3,46.8,42.7,96,72,32,30.05,29.84,3,0,5,0.00
2013-11-29,78.8,55.0,42.1,52.1,45.8,40.1,91,68,26,30.18,30.04,4,0,5,0.00
2013-11-30,77.2,51.6,42.4,53.6,44.4,0.0,90,70,34,30.94,29.91,4,0,7,0.00
2013-12-1,80.2,50.4,43.0,53.8,43.2,0.0,93,67,30,30.44,29.89,4,0,6,0.00
2013-12-2,66.7,51.6,42.4,54.7,47.5,0.0,99,81,52,29.91,29.62,9,2,14,0.00
2013-12-3,60.3,49.0,39.7,53.0,40.2,27.5,99,66,36,29.62,29.51,9,3,15,0.04
2013-12-4,74.5,40.8,30.7,47.1,23.8,0.0,58,39,20,31.82,29.60,6,1,10,0.04
2013-12-5,59.9,38.1,25.9,29.1,22.2,19.0,66,44,20,29.81,29.72,4,1,7,0.00
2013-12-6,52.5,40.7,29.3,46.2,33.1,0.0,99,67,40,30.10,29.56,11,2,17,0.47
2013-12-7,55.4,32.4,32.2,52.7,25.6,0.0,99,51,40,30.18,29.57,12,2,17,0.40
2013-12-8,72.3,37.0,30.4,54.7,25.8,17.8,89,56,30,30.21,29.86,8,2,10,0.07
2013-12-9,58.6,37.8,32.2,31.5,21.2,0.0,69,37,24,30.06,29.93,8,2,14,0.00
2013-12-10,62.4,36.8,28.0,37.4,27.7,0.0,86,59,22,30.04,29.85,3,0,5,0.00
2013-12-11,64.0,36.9,31.1,40.0,27.9,0.0,83,55,20,29.89,29.83,3,0,6,0.00
2013-12-12,71.8,45.2,32.0,44.7,35.7,0.0,85,63,24,29.92,29.82,3,0,5,0.07
2013-12-13,73.2,46.4,33.6,44.7,36.7,31.2,96,65,22,30.42,29.88,4,0,7,0.00
2013-12-14,75.0,47.3,35.6,45.2,36.4,31.2,84,61,18,30.04,29.96,5,0,7,0.00
2013-12-15,68.4,46.8,35.6,46.6,38.2,0.0,89,66,35,30.47,29.90,3,0,4,0.00
2013-12-16,78.3,52.2,39.7,47.2,40.4,34.6,83,59,24,29.91,29.79,4,0,5,0.00
2013-12-17,68.5,49.4,40.3,49.1,41.3,0.0,85,66,39,29.84,29.70,3,0,4,0.00
2013-12-18,57.6,36.2,43.9,49.4,33.1,0.0,99,61,57,29.70,29.43,8,1,11,0.00
2013-12-19,67.5,48.4,39.0,46.9,35.5,0.0,99,57,20,29.59,29.38,9,2,14,0.00
2013-12-20,69.8,50.2,38.3,30.1,25.2,18.3,43,27,13,30.06,29.57,5,1,14,0.00
2013-12-21,71.4,49.5,38.7,48.8,38.2,0.0,85,57,32,29.76,29.62,5,1,8,0.00
2013-12-22,69.6,51.5,39.7,46.9,41.5,38.2,93,65,31,29.95,29.75,8,1,15,0.00
2013-12-23,72.1,50.4,39.4,49.1,41.5,36.2,86,66,33,30.04,29.95,4,0,6,0.00
2013-12-24,80.6,54.7,41.0,51.2,42.4,38.1,87,59,21,31.80,29.88,4,0,8,0.00
2013-12-25,76.6,52.9,41.4,50.1,41.8,35.9,83,60,26,29.97,29.87,4,1,8,0.00
2013-12-26,76.3,52.1,39.6,49.9,41.9,37.3,91,64,25,29.92,29.84,54,1,89,0.00
2013-12-27,61.9,48.2,39.4,48.2,42.0,34.7,88,74,51,29.90,29.78,4,0,6,0.00
2013-12-28,74.1,51.9,36.5,48.8,36.2,28.5,95,54,14,29.81,29.70,7,1,11,0.00
2013-12-29,72.0,56.9,42.4,39.6,31.8,24.3,67,31,15,29.85,29.76,5,1,8,0.00
2013-12-30,42.4,40.6,38.3,35.0,34.0,32.9,76,70,66,30.33,29.85,1,0,2,0.00